createdAt,value
2017-05-17T00:00:37.124Z,1015.45
2017-05-17T00:01:38.547Z,1015.45
2017-05-17T00:02:39.979Z,1015.44
2017-05-17T00:03:41.416Z,1015.45
2017-05-17T00:04:42.847Z,1015.46
2017-05-17T00:05:44.276Z,1015.40
2017-05-17T00:06:45.712Z,1015.40
2017-05-17T00:07:47.141Z,1015.41
2017-05-17T00:08:48.571Z,1015.38
2017-05-17T00:09:50.001Z,1015.38
2017-05-17T00:10:52.304Z,1015.37
2017-05-17T00:11:53.733Z,1015.38
2017-05-17T00:12:55.173Z,1015.36
2017-05-17T00:13:56.611Z,1015.34
2017-05-17T00:14:58.041Z,1015.37
2017-05-17T00:15:59.494Z,1015.31
2017-05-17T00:17:00.977Z,1015.36
2017-05-17T00:18:02.420Z,1015.29
2017-05-17T00:19:03.843Z,1015.38
2017-05-17T00:20:05.276Z,1015.31
2017-05-17T00:21:06.708Z,1015.32
2017-05-17T00:22:08.151Z,1015.32
2017-05-17T00:23:09.583Z,1015.28
2017-05-17T00:24:11.015Z,1015.26
2017-05-17T00:25:12.446Z,1015.27
2017-05-17T00:26:13.881Z,1015.32
2017-05-17T00:27:15.323Z,1015.26
2017-05-17T00:28:16.775Z,1015.24
2017-05-17T00:29:18.203Z,1015.29
2017-05-17T00:30:19.630Z,1015.20
2017-05-17T00:31:21.852Z,1015.25
2017-05-17T00:32:23.295Z,1015.21
2017-05-17T00:33:24.739Z,1015.25
2017-05-17T00:34:26.171Z,1015.25
2017-05-17T00:35:27.605Z,1015.21
2017-05-17T00:36:29.029Z,1015.20
2017-05-17T00:37:30.462Z,1015.20
2017-05-17T00:38:31.889Z,1015.19
2017-05-17T00:39:33.335Z,1015.20
2017-05-17T00:40:34.763Z,1015.18
2017-05-17T00:41:36.196Z,1015.13
2017-05-17T00:42:37.627Z,1015.19
2017-05-17T00:43:39.719Z,1015.17
2017-05-17T00:44:41.150Z,1015.17
2017-05-17T00:45:42.611Z,1015.16
2017-05-17T00:46:44.040Z,1015.17
2017-05-17T00:47:45.468Z,1015.16
2017-05-17T00:48:46.899Z,1015.12
2017-05-17T00:49:48.332Z,1015.16
2017-05-17T00:50:49.761Z,1015.10
2017-05-17T00:51:51.192Z,1015.12
2017-05-17T00:52:52.619Z,1015.12
2017-05-17T00:53:54.053Z,1015.10
2017-05-17T00:54:55.490Z,1015.06
2017-05-17T00:55:56.914Z,1015.08
2017-05-17T00:56:58.346Z,1015.07
2017-05-17T00:57:59.780Z,1015.03
2017-05-17T00:59:01.211Z,1015.06
2017-05-17T01:00:02.642Z,1015.01
2017-05-17T01:01:04.072Z,1015.04
2017-05-17T01:02:05.501Z,1015.00
2017-05-17T01:03:06.933Z,1015.01
2017-05-17T01:04:08.360Z,1014.98
2017-05-17T01:05:09.803Z,1014.97
2017-05-17T01:06:11.228Z,1015.01
2017-05-17T01:07:12.712Z,1014.96
2017-05-17T01:08:14.149Z,1014.98
2017-05-17T01:09:15.592Z,1014.96
2017-05-17T01:10:17.011Z,1014.94
2017-05-17T01:11:18.450Z,1014.92
2017-05-17T01:12:19.878Z,1014.88
2017-05-17T01:13:21.308Z,1014.87
2017-05-17T01:14:22.746Z,1014.88
2017-05-17T01:15:24.179Z,1014.84
2017-05-17T01:16:25.615Z,1014.84
2017-05-17T01:17:27.051Z,1014.81
2017-05-17T01:18:28.479Z,1014.79
2017-05-17T01:19:29.905Z,1014.80
2017-05-17T01:20:31.349Z,1014.81
2017-05-17T01:21:32.888Z,1014.76
2017-05-17T01:22:34.324Z,1014.76
2017-05-17T01:23:35.751Z,1014.71
2017-05-17T01:24:37.195Z,1014.73
2017-05-17T01:25:38.673Z,1014.76
2017-05-17T01:26:40.101Z,1014.75
2017-05-17T01:27:41.535Z,1014.73
2017-05-17T01:28:43.001Z,1014.71
2017-05-17T01:29:44.431Z,1014.74
2017-05-17T01:30:45.863Z,1014.75
2017-05-17T01:31:47.322Z,1014.77
2017-05-17T01:32:48.756Z,1014.76
2017-05-17T01:33:50.184Z,1014.74
2017-05-17T01:34:51.617Z,1014.73
2017-05-17T01:35:53.045Z,1014.74
2017-05-17T01:36:54.483Z,1014.72
2017-05-17T01:37:55.918Z,1014.69
2017-05-17T01:38:57.357Z,1014.67
2017-05-17T01:39:58.890Z,1014.71
2017-05-17T01:41:00.323Z,1014.69
2017-05-17T01:42:01.756Z,1014.71
2017-05-17T01:43:03.189Z,1014.66
2017-05-17T01:44:04.620Z,1014.66
2017-05-17T01:45:06.055Z,1014.66
2017-05-17T01:46:07.483Z,1014.64
2017-05-17T01:47:08.917Z,1014.66
2017-05-17T01:48:10.351Z,1014.63
2017-05-17T01:49:11.786Z,1014.61
2017-05-17T01:50:13.223Z,1014.63
2017-05-17T01:51:14.659Z,1014.65
2017-05-17T01:52:16.093Z,1014.60
2017-05-17T01:53:17.519Z,1014.58
2017-05-17T01:54:18.958Z,1014.65
2017-05-17T01:55:20.388Z,1014.62
2017-05-17T01:56:21.823Z,1014.57
2017-05-17T01:57:23.259Z,1014.61
2017-05-17T01:58:24.692Z,1014.57
2017-05-17T01:59:26.171Z,1014.60
2017-05-17T02:00:27.555Z,1014.55
2017-05-17T02:01:28.988Z,1014.56
2017-05-17T02:02:30.421Z,1014.51
2017-05-17T02:03:31.862Z,1014.58
2017-05-17T02:04:33.304Z,1014.50
2017-05-17T02:05:34.732Z,1014.53
2017-05-17T02:06:36.156Z,1014.50
2017-05-17T02:07:37.589Z,1014.47
2017-05-17T02:08:39.027Z,1014.44
2017-05-17T02:09:40.454Z,1014.47
2017-05-17T02:10:41.889Z,1014.46
2017-05-17T02:11:43.321Z,1014.47
2017-05-17T02:12:44.755Z,1014.43
2017-05-17T02:13:46.189Z,1014.45
2017-05-17T02:14:47.621Z,1014.41
2017-05-17T02:15:49.052Z,1014.43
2017-05-17T02:16:50.484Z,1014.43
2017-05-17T02:17:51.913Z,1014.40
2017-05-17T02:18:53.350Z,1014.42
2017-05-17T02:19:54.775Z,1014.41
2017-05-17T02:20:56.206Z,1014.40
2017-05-17T02:21:57.637Z,1014.39
2017-05-17T02:22:59.074Z,1014.37
2017-05-17T02:24:00.504Z,1014.37
2017-05-17T02:25:01.934Z,1014.38
2017-05-17T02:26:03.373Z,1014.33
2017-05-17T02:27:04.805Z,1014.41
2017-05-17T02:28:06.241Z,1014.38
2017-05-17T02:29:07.670Z,1014.36
2017-05-17T02:30:09.105Z,1014.33
2017-05-17T02:31:10.534Z,1014.35
2017-05-17T02:32:11.958Z,1014.36
2017-05-17T02:33:13.389Z,1014.35
2017-05-17T02:34:14.824Z,1014.32
2017-05-17T02:35:16.258Z,1014.30
2017-05-17T02:36:17.677Z,1014.29
2017-05-17T02:37:19.111Z,1014.21
2017-05-17T02:38:20.542Z,1014.24
2017-05-17T02:39:21.974Z,1014.23
2017-05-17T02:40:23.403Z,1014.18
2017-05-17T02:41:24.833Z,1014.24
2017-05-17T02:42:28.877Z,1014.24
2017-05-17T02:43:30.299Z,1014.19
2017-05-17T02:44:31.733Z,1014.20
2017-05-17T02:45:33.229Z,1014.20
2017-05-17T02:46:34.661Z,1014.18
2017-05-17T02:47:36.093Z,1014.22
2017-05-17T02:48:37.518Z,1014.19
2017-05-17T02:49:38.957Z,1014.18
2017-05-17T02:50:40.393Z,1014.17
2017-05-17T02:51:41.827Z,1014.16
2017-05-17T02:52:43.257Z,1014.14
2017-05-17T02:53:44.731Z,1014.16
2017-05-17T02:54:46.157Z,1014.17
2017-05-17T02:55:47.592Z,1014.18
2017-05-17T02:56:49.029Z,1014.13
2017-05-17T02:57:50.469Z,1014.16
2017-05-17T02:58:51.897Z,1014.11
2017-05-17T02:59:53.421Z,1014.15
2017-05-17T03:00:54.846Z,1014.13
2017-05-17T03:01:56.281Z,1014.10
2017-05-17T03:02:57.712Z,1014.11
2017-05-17T03:03:59.265Z,1014.08
2017-05-17T03:05:00.702Z,1014.07
2017-05-17T03:06:02.132Z,1014.11
2017-05-17T03:07:03.564Z,1014.08
2017-05-17T03:08:04.996Z,1014.06
2017-05-17T03:09:06.425Z,1014.04
2017-05-17T03:10:07.851Z,1014.06
2017-05-17T03:11:10.212Z,1014.04
2017-05-17T03:12:10.665Z,1014.06
2017-05-17T03:13:12.095Z,1014.04
2017-05-17T03:14:13.526Z,1014.01
2017-05-17T03:15:14.949Z,1014.00
2017-05-17T03:16:16.390Z,1014.01
2017-05-17T03:17:17.815Z,1013.98
2017-05-17T03:18:19.249Z,1014.00
2017-05-17T03:19:20.678Z,1014.01
2017-05-17T03:20:22.125Z,1013.98
2017-05-17T03:21:23.561Z,1013.92
2017-05-17T03:22:25.043Z,1013.93
2017-05-17T03:23:26.419Z,1013.94
2017-05-17T03:24:27.853Z,1013.93
2017-05-17T03:25:29.285Z,1013.90
2017-05-17T03:26:31.444Z,1013.92
2017-05-17T03:27:32.869Z,1013.91
2017-05-17T03:28:34.304Z,1013.90
2017-05-17T03:29:35.733Z,1013.91
2017-05-17T03:30:37.170Z,1013.88
2017-05-17T03:31:38.603Z,1013.90
2017-05-17T03:32:41.447Z,1013.86
2017-05-17T03:33:42.907Z,1013.85
2017-05-17T03:34:44.339Z,1013.86
2017-05-17T03:35:45.779Z,1013.85
2017-05-17T03:36:47.207Z,1013.84
2017-05-17T03:37:48.639Z,1013.87
2017-05-17T03:38:50.079Z,1013.86
2017-05-17T03:39:51.505Z,1013.83
2017-05-17T03:40:52.937Z,1013.89
2017-05-17T03:41:54.370Z,1013.88
2017-05-17T03:42:55.799Z,1013.83
2017-05-17T03:43:57.234Z,1013.83
2017-05-17T03:44:58.665Z,1013.83
2017-05-17T03:46:00.095Z,1013.83
2017-05-17T03:47:01.534Z,1013.86
2017-05-17T03:48:02.964Z,1013.81
2017-05-17T03:49:04.393Z,1013.81
2017-05-17T03:50:05.823Z,1013.79
2017-05-17T03:51:07.255Z,1013.84
2017-05-17T03:52:08.685Z,1013.84
2017-05-17T03:53:10.125Z,1013.85
2017-05-17T03:54:11.556Z,1013.81
2017-05-17T03:55:12.984Z,1013.83
2017-05-17T03:56:14.420Z,1013.84
2017-05-17T03:57:15.850Z,1013.84
2017-05-17T03:58:17.287Z,1013.81
2017-05-17T03:59:18.725Z,1013.87
2017-05-17T04:00:20.162Z,1013.89
2017-05-17T04:01:21.599Z,1013.84
2017-05-17T04:02:23.034Z,1013.84
2017-05-17T04:03:24.459Z,1013.85
2017-05-17T04:04:25.890Z,1013.84
2017-05-17T04:05:27.318Z,1013.85
2017-05-17T04:06:28.750Z,1013.86
2017-05-17T04:07:30.181Z,1013.86
2017-05-17T04:08:31.610Z,1013.83
2017-05-17T04:09:33.045Z,1013.88
2017-05-17T04:10:34.476Z,1013.86
2017-05-17T04:11:35.902Z,1013.86
2017-05-17T04:12:37.335Z,1013.86
2017-05-17T04:13:38.765Z,1013.84
2017-05-17T04:14:40.192Z,1013.84
2017-05-17T04:15:41.627Z,1013.83
2017-05-17T04:16:43.057Z,1013.83
2017-05-17T04:17:44.490Z,1013.86
2017-05-17T04:18:45.923Z,1013.85
2017-05-17T04:19:47.354Z,1013.81
2017-05-17T04:20:48.796Z,1013.83
2017-05-17T04:21:50.232Z,1013.82
2017-05-17T04:22:51.665Z,1013.79
2017-05-17T04:23:53.091Z,1013.82
2017-05-17T04:24:54.531Z,1013.83
2017-05-17T04:25:55.978Z,1013.81
2017-05-17T04:26:57.420Z,1013.82
2017-05-17T04:27:58.855Z,1013.78
2017-05-17T04:29:00.293Z,1013.84
2017-05-17T04:30:01.721Z,1013.80
2017-05-17T04:31:03.158Z,1013.82
2017-05-17T04:32:04.586Z,1013.80
2017-05-17T04:33:06.026Z,1013.77
2017-05-17T04:34:07.458Z,1013.74
2017-05-17T04:35:08.894Z,1013.78
2017-05-17T04:36:10.330Z,1013.74
2017-05-17T04:37:11.766Z,1013.78
2017-05-17T04:38:13.201Z,1013.76
2017-05-17T04:39:14.637Z,1013.76
2017-05-17T04:40:16.068Z,1013.73
2017-05-17T04:41:17.512Z,1013.76
2017-05-17T04:42:18.937Z,1013.77
2017-05-17T04:43:20.385Z,1013.76
2017-05-17T04:44:21.813Z,1013.75
2017-05-17T04:45:23.244Z,1013.78
2017-05-17T04:46:24.682Z,1013.73
2017-05-17T04:47:26.118Z,1013.70
2017-05-17T04:48:27.549Z,1013.74
2017-05-17T04:49:28.987Z,1013.72
2017-05-17T04:50:30.425Z,1013.76
2017-05-17T04:51:31.851Z,1013.76
2017-05-17T04:52:33.314Z,1013.74
2017-05-17T04:53:34.744Z,1013.76
2017-05-17T04:54:36.179Z,1013.74
2017-05-17T04:55:37.617Z,1013.76
2017-05-17T04:56:39.088Z,1013.72
2017-05-17T04:57:40.526Z,1013.77
2017-05-17T04:58:41.960Z,1013.75
2017-05-17T04:59:43.398Z,1013.71
2017-05-17T05:00:44.836Z,1013.73
2017-05-17T05:01:46.271Z,1013.75
2017-05-17T05:02:47.711Z,1013.72
2017-05-17T05:03:49.157Z,1013.71
2017-05-17T05:04:50.595Z,1013.71
2017-05-17T05:05:52.036Z,1013.69
2017-05-17T05:06:53.472Z,1013.72
2017-05-17T05:07:54.961Z,1013.68
2017-05-17T05:08:56.398Z,1013.68
2017-05-17T05:09:57.838Z,1013.68
2017-05-17T05:10:59.323Z,1013.65
2017-05-17T05:12:00.762Z,1013.66
2017-05-17T05:13:02.196Z,1013.64
2017-05-17T05:14:04.339Z,1013.62
2017-05-17T05:15:05.784Z,1013.62
2017-05-17T05:16:07.223Z,1013.66
2017-05-17T05:17:08.650Z,1013.63
2017-05-17T05:18:10.085Z,1013.64
2017-05-17T05:19:11.524Z,1013.62
2017-05-17T05:20:12.955Z,1013.62
2017-05-17T05:21:14.400Z,1013.62
2017-05-17T05:22:15.831Z,1013.64
2017-05-17T05:23:17.265Z,1013.66
2017-05-17T05:24:18.699Z,1013.66
2017-05-17T05:25:20.134Z,1013.63
2017-05-17T05:26:21.566Z,1013.60
2017-05-17T05:27:23.517Z,1013.60
2017-05-17T05:28:24.943Z,1013.61
2017-05-17T05:29:26.378Z,1013.63
2017-05-17T05:30:27.817Z,1013.57
2017-05-17T05:31:29.255Z,1013.57
2017-05-17T05:32:30.684Z,1013.57
2017-05-17T05:33:32.121Z,1013.57
2017-05-17T05:34:33.564Z,1013.60
2017-05-17T05:35:35.001Z,1013.57
2017-05-17T05:36:36.441Z,1013.59
2017-05-17T05:37:37.864Z,1013.55
2017-05-17T05:38:39.306Z,1013.56
2017-05-17T05:39:40.746Z,1013.55
2017-05-17T05:40:42.181Z,1013.57
2017-05-17T05:41:43.613Z,1013.53
2017-05-17T05:42:45.050Z,1013.55
2017-05-17T05:43:46.483Z,1013.53
2017-05-17T05:44:47.915Z,1013.52
2017-05-17T05:45:49.349Z,1013.53
2017-05-17T05:46:50.832Z,1013.51
2017-05-17T05:47:52.262Z,1013.54
2017-05-17T05:48:53.708Z,1013.50
2017-05-17T05:49:55.146Z,1013.53
2017-05-17T05:50:56.586Z,1013.54
2017-05-17T05:51:58.918Z,1013.49
2017-05-17T05:53:00.353Z,1013.51
2017-05-17T05:54:02.381Z,1013.49
2017-05-17T05:55:03.814Z,1013.53
2017-05-17T05:56:05.248Z,1013.46
2017-05-17T05:57:06.681Z,1013.47
2017-05-17T05:58:08.115Z,1013.44
2017-05-17T05:59:09.549Z,1013.40
2017-05-17T06:00:10.985Z,1013.40
2017-05-17T06:01:12.426Z,1013.44
2017-05-17T06:02:13.860Z,1013.46
2017-05-17T06:03:15.292Z,1013.43
2017-05-17T06:04:16.723Z,1013.45
2017-05-17T06:05:18.158Z,1013.46
2017-05-17T06:06:19.586Z,1013.43
2017-05-17T06:07:21.018Z,1013.42
2017-05-17T06:08:22.452Z,1013.44
2017-05-17T06:09:23.894Z,1013.45
2017-05-17T06:10:25.322Z,1013.43
2017-05-17T06:11:26.756Z,1013.45
2017-05-17T06:12:28.188Z,1013.45
2017-05-17T06:13:29.621Z,1013.42
2017-05-17T06:14:31.062Z,1013.43
2017-05-17T06:15:32.505Z,1013.38
2017-05-17T06:16:33.944Z,1013.40
2017-05-17T06:17:35.381Z,1013.39
2017-05-17T06:18:36.816Z,1013.38
2017-05-17T06:19:38.252Z,1013.39
2017-05-17T06:20:39.690Z,1013.40
2017-05-17T06:21:41.121Z,1013.34
2017-05-17T06:22:42.558Z,1013.37
2017-05-17T06:23:43.987Z,1013.36
2017-05-17T06:24:45.420Z,1013.37
2017-05-17T06:25:46.859Z,1013.32
2017-05-17T06:26:48.294Z,1013.32
2017-05-17T06:27:49.734Z,1013.33
2017-05-17T06:28:51.165Z,1013.35
2017-05-17T06:29:52.601Z,1013.33
2017-05-17T06:30:54.031Z,1013.29
2017-05-17T06:31:55.471Z,1013.30
2017-05-17T06:32:56.909Z,1013.31
2017-05-17T06:33:58.345Z,1013.25
2017-05-17T06:34:59.779Z,1013.27
2017-05-17T06:36:01.212Z,1013.20
2017-05-17T06:37:02.645Z,1013.26
2017-05-17T06:38:04.080Z,1013.23
2017-05-17T06:39:05.516Z,1013.27
2017-05-17T06:40:06.948Z,1013.22
2017-05-17T06:41:08.388Z,1013.26
2017-05-17T06:42:09.823Z,1013.21
2017-05-17T06:43:11.266Z,1013.22
2017-05-17T06:44:12.704Z,1013.27
2017-05-17T06:45:14.143Z,1013.22
2017-05-17T06:46:15.584Z,1013.26
2017-05-17T06:47:17.024Z,1013.21
2017-05-17T06:48:18.466Z,1013.22
2017-05-17T06:49:19.914Z,1013.20
2017-05-17T06:50:21.346Z,1013.22
2017-05-17T06:51:22.789Z,1013.22
2017-05-17T06:52:24.230Z,1013.24
2017-05-17T06:53:25.661Z,1013.17
2017-05-17T06:54:27.099Z,1013.21
2017-05-17T06:55:28.533Z,1013.16
2017-05-17T06:56:29.974Z,1013.18
2017-05-17T06:57:31.411Z,1013.16
2017-05-17T06:58:32.937Z,1013.19
2017-05-17T06:59:34.321Z,1013.15
2017-05-17T07:00:35.754Z,1013.13
2017-05-17T07:01:37.214Z,1013.13
2017-05-17T07:02:38.693Z,1013.13
2017-05-17T07:03:40.135Z,1013.10
2017-05-17T07:04:41.576Z,1013.11
2017-05-17T07:05:43.011Z,1013.10
2017-05-17T07:06:44.448Z,1013.13
2017-05-17T07:07:45.883Z,1013.11
2017-05-17T07:08:47.363Z,1013.15
2017-05-17T07:09:48.792Z,1013.11
2017-05-17T07:10:50.231Z,1013.14
2017-05-17T07:11:51.666Z,1013.06
2017-05-17T07:12:53.111Z,1013.04
2017-05-17T07:13:54.552Z,1013.08
2017-05-17T07:14:55.994Z,1013.02
2017-05-17T07:15:57.432Z,1013.03
2017-05-17T07:16:58.877Z,1012.99
2017-05-17T07:18:00.312Z,1012.99
2017-05-17T07:19:01.755Z,1013.00
2017-05-17T07:20:03.202Z,1012.99
2017-05-17T07:21:04.702Z,1012.97
2017-05-17T07:22:06.141Z,1012.94
2017-05-17T07:23:07.582Z,1012.99
2017-05-17T07:24:09.013Z,1012.97
2017-05-17T07:25:10.444Z,1012.98
2017-05-17T07:26:11.883Z,1013.02
2017-05-17T07:27:13.320Z,1013.00
2017-05-17T07:28:14.764Z,1012.97
2017-05-17T07:29:16.204Z,1013.02
2017-05-17T07:30:17.635Z,1012.97
2017-05-17T07:31:19.089Z,1012.95
2017-05-17T07:32:20.506Z,1012.90
2017-05-17T07:33:21.995Z,1012.91
2017-05-17T07:34:23.397Z,1012.96
2017-05-17T07:35:24.838Z,1012.89
2017-05-17T07:36:26.276Z,1012.91
2017-05-17T07:37:27.715Z,1012.91
2017-05-17T07:38:29.144Z,1012.89
2017-05-17T07:39:30.591Z,1012.86
2017-05-17T07:40:32.022Z,1012.96
2017-05-17T07:41:33.467Z,1012.92
2017-05-17T07:42:34.906Z,1012.92
2017-05-17T07:43:36.344Z,1012.93
2017-05-17T07:44:37.790Z,1012.90
2017-05-17T07:45:39.252Z,1012.88
2017-05-17T07:46:40.702Z,1012.86
2017-05-17T07:47:42.138Z,1012.87
2017-05-17T07:48:43.572Z,1012.86
2017-05-17T07:49:45.103Z,1012.84
2017-05-17T07:50:46.545Z,1012.82
2017-05-17T07:51:47.982Z,1012.85
2017-05-17T07:52:49.417Z,1012.83
2017-05-17T07:53:50.850Z,1012.72
2017-05-17T07:54:52.285Z,1012.78
2017-05-17T07:55:53.711Z,1012.78
2017-05-17T07:56:55.158Z,1012.76
2017-05-17T07:57:56.595Z,1012.75
2017-05-17T07:58:58.029Z,1012.71
2017-05-17T07:59:59.466Z,1012.73
2017-05-17T08:01:00.912Z,1012.72
2017-05-17T08:02:02.351Z,1012.72
2017-05-17T08:03:04.270Z,1012.66
2017-05-17T08:04:05.710Z,1012.69
2017-05-17T08:05:07.158Z,1012.69
2017-05-17T08:06:08.595Z,1012.64
2017-05-17T08:07:10.035Z,1012.64
2017-05-17T08:08:11.466Z,1012.61
2017-05-17T08:09:12.902Z,1012.61
2017-05-17T08:10:14.331Z,1012.61
2017-05-17T08:11:15.774Z,1012.64
2017-05-17T08:12:17.215Z,1012.61
2017-05-17T08:13:18.654Z,1012.57
2017-05-17T08:14:20.109Z,1012.56
2017-05-17T08:15:21.542Z,1012.59
2017-05-17T08:16:22.979Z,1012.54
2017-05-17T08:17:24.418Z,1012.56
2017-05-17T08:18:25.858Z,1012.54
2017-05-17T08:19:27.291Z,1012.49
2017-05-17T08:20:28.725Z,1012.51
2017-05-17T08:21:30.164Z,1012.49
2017-05-17T08:22:31.604Z,1012.53
2017-05-17T08:23:33.047Z,1012.50
2017-05-17T08:24:34.482Z,1012.44
2017-05-17T08:25:35.928Z,1012.44
2017-05-17T08:26:37.355Z,1012.46
2017-05-17T08:27:38.796Z,1012.41
2017-05-17T08:28:40.242Z,1012.42
2017-05-17T08:29:41.691Z,1012.38
2017-05-17T08:30:43.131Z,1012.40
2017-05-17T08:31:44.566Z,1012.39
2017-05-17T08:32:46.004Z,1012.37
2017-05-17T08:33:47.447Z,1012.40
2017-05-17T08:34:48.888Z,1012.39
2017-05-17T08:35:50.326Z,1012.37
2017-05-17T08:36:51.765Z,1012.40
2017-05-17T08:37:53.261Z,1012.37
2017-05-17T08:38:54.644Z,1012.37
2017-05-17T08:39:56.093Z,1012.40
2017-05-17T08:40:57.537Z,1012.38
2017-05-17T08:41:58.980Z,1012.34
2017-05-17T08:43:00.420Z,1012.32
2017-05-17T08:44:01.854Z,1012.30
2017-05-17T08:45:03.290Z,1012.30
2017-05-17T08:46:04.732Z,1012.32
2017-05-17T08:47:06.166Z,1012.28
2017-05-17T08:48:07.606Z,1012.22
2017-05-17T08:49:09.045Z,1012.21
2017-05-17T08:50:10.487Z,1012.18
2017-05-17T08:51:11.927Z,1012.17
2017-05-17T08:52:13.365Z,1012.10
2017-05-17T08:53:14.806Z,1012.15
2017-05-17T08:54:16.243Z,1012.08
2017-05-17T08:55:17.677Z,1012.09
2017-05-17T08:56:19.108Z,1012.08
2017-05-17T08:57:20.545Z,1012.05
2017-05-17T08:58:21.986Z,1011.99
2017-05-17T08:59:23.427Z,1012.03
2017-05-17T09:00:24.865Z,1012.00
2017-05-17T09:01:26.302Z,1011.97
2017-05-17T09:02:27.744Z,1011.97
2017-05-17T09:03:29.868Z,1011.99
2017-05-17T09:04:30.567Z,1011.95
2017-05-17T09:05:32.006Z,1011.96
2017-05-17T09:06:33.452Z,1011.94
2017-05-17T09:07:34.893Z,1011.95
2017-05-17T09:08:36.343Z,1011.93
2017-05-17T09:09:37.779Z,1011.92
2017-05-17T09:10:39.226Z,1011.89
2017-05-17T09:11:40.655Z,1011.88
2017-05-17T09:12:42.097Z,1011.90
2017-05-17T09:13:43.540Z,1011.90
2017-05-17T09:14:44.976Z,1011.88
2017-05-17T09:15:46.415Z,1011.88
2017-05-17T09:16:47.855Z,1011.87
2017-05-17T09:17:49.297Z,1011.88
2017-05-17T09:18:50.737Z,1011.91
2017-05-17T09:19:52.180Z,1011.88
2017-05-17T09:20:53.614Z,1011.86
2017-05-17T09:21:55.057Z,1011.83
2017-05-17T09:22:56.494Z,1011.84
2017-05-17T09:23:57.937Z,1011.83
2017-05-17T09:24:59.414Z,1011.82
2017-05-17T09:26:00.861Z,1011.84
2017-05-17T09:27:02.308Z,1011.82
2017-05-17T09:28:03.753Z,1011.73
2017-05-17T09:29:05.195Z,1011.76
2017-05-17T09:30:06.636Z,1011.76
2017-05-17T09:31:08.072Z,1011.76
2017-05-17T09:32:09.517Z,1011.76
2017-05-17T09:33:10.961Z,1011.69
2017-05-17T09:34:12.402Z,1011.74
2017-05-17T09:35:13.843Z,1011.67
2017-05-17T09:36:15.280Z,1011.68
2017-05-17T09:37:16.723Z,1011.65
2017-05-17T09:38:18.166Z,1011.65
2017-05-17T09:39:19.605Z,1011.58
2017-05-17T09:40:21.043Z,1011.58
2017-05-17T09:41:22.486Z,1011.56
2017-05-17T09:42:24.563Z,1011.51
2017-05-17T09:43:27.316Z,1011.49
2017-05-17T09:44:28.784Z,1011.47
2017-05-17T09:45:30.224Z,1011.46
2017-05-17T09:46:31.669Z,1011.41
2017-05-17T09:47:33.110Z,1011.42
2017-05-17T09:48:34.543Z,1011.34
2017-05-17T09:49:35.980Z,1011.35
2017-05-17T09:50:37.423Z,1011.38
2017-05-17T09:51:38.869Z,1011.33
2017-05-17T09:52:40.307Z,1011.31
2017-05-17T09:53:41.744Z,1011.27
2017-05-17T09:54:43.222Z,1011.28
2017-05-17T09:55:44.657Z,1011.22
2017-05-17T09:56:46.104Z,1011.25
2017-05-17T09:57:47.557Z,1011.28
2017-05-17T09:58:48.999Z,1011.23
2017-05-17T09:59:50.451Z,1011.26
2017-05-17T10:00:51.903Z,1011.26
2017-05-17T10:01:53.343Z,1011.24
2017-05-17T10:02:54.791Z,1011.21
2017-05-17T10:03:56.233Z,1011.17
2017-05-17T10:04:57.671Z,1011.16
2017-05-17T10:05:59.114Z,1011.16
2017-05-17T10:07:00.553Z,1011.10
2017-05-17T10:08:02.000Z,1011.11
2017-05-17T10:09:03.440Z,1011.09
2017-05-17T10:10:04.924Z,1011.12
2017-05-17T10:11:06.362Z,1011.05
2017-05-17T10:12:07.799Z,1011.05
2017-05-17T10:13:09.259Z,1011.05
2017-05-17T10:14:10.699Z,1011.01
2017-05-17T10:15:12.141Z,1011.00
2017-05-17T10:16:13.582Z,1010.96
2017-05-17T10:17:15.026Z,1010.97
2017-05-17T10:18:16.466Z,1010.91
2017-05-17T10:19:18.635Z,1010.97
2017-05-17T10:20:20.074Z,1010.91
2017-05-17T10:21:21.529Z,1010.88
2017-05-17T10:22:22.966Z,1010.79
2017-05-17T10:23:24.406Z,1010.77
2017-05-17T10:24:25.853Z,1010.78
2017-05-17T10:25:27.295Z,1010.81
2017-05-17T10:26:28.745Z,1010.82
2017-05-17T10:27:30.191Z,1010.81
2017-05-17T10:28:31.630Z,1010.80
2017-05-17T10:29:33.067Z,1010.72
2017-05-17T10:30:34.523Z,1010.69
2017-05-17T10:31:36.670Z,1010.66
2017-05-17T10:32:38.815Z,1010.65
2017-05-17T10:33:40.253Z,1010.63
2017-05-17T10:34:41.692Z,1010.64
2017-05-17T10:35:43.139Z,1010.63
2017-05-17T10:36:44.576Z,1010.63
2017-05-17T10:37:46.020Z,1010.67
2017-05-17T10:38:47.459Z,1010.58
2017-05-17T10:39:48.896Z,1010.60
2017-05-17T10:40:50.337Z,1010.51
2017-05-17T10:41:51.779Z,1010.52
2017-05-17T10:42:53.223Z,1010.46
2017-05-17T10:43:54.663Z,1010.43
2017-05-17T10:44:56.116Z,1010.45
2017-05-17T10:45:57.555Z,1010.48
2017-05-17T10:46:58.992Z,1010.45
2017-05-17T10:48:00.435Z,1010.47
2017-05-17T10:49:01.890Z,1010.48
2017-05-17T10:50:03.325Z,1010.39
2017-05-17T10:51:04.766Z,1010.34
2017-05-17T10:52:06.215Z,1010.37
2017-05-17T10:53:07.652Z,1010.40
2017-05-17T10:54:09.099Z,1010.38
2017-05-17T10:55:10.526Z,1010.37
2017-05-17T10:56:11.975Z,1010.31
2017-05-17T10:57:13.416Z,1010.27
2017-05-17T10:58:14.852Z,1010.25
2017-05-17T10:59:16.300Z,1010.26
2017-05-17T11:00:17.741Z,1010.21
2017-05-17T11:01:19.181Z,1010.19
2017-05-17T11:02:20.635Z,1010.19
2017-05-17T11:03:22.078Z,1010.09
2017-05-17T11:04:23.518Z,1010.17
2017-05-17T11:05:24.959Z,1010.18
2017-05-17T11:06:26.413Z,1010.08
2017-05-17T11:07:27.851Z,1010.08
2017-05-17T11:08:29.295Z,1010.04
2017-05-17T11:09:30.738Z,1010.04
2017-05-17T11:10:32.174Z,1009.99
2017-05-17T11:11:33.676Z,1009.97
2017-05-17T11:12:35.121Z,1009.96
2017-05-17T11:13:36.568Z,1009.95
2017-05-17T11:14:38.014Z,1009.97
2017-05-17T11:15:39.469Z,1009.98
2017-05-17T11:16:40.924Z,1009.99
2017-05-17T11:17:42.381Z,1009.91
2017-05-17T11:18:43.821Z,1009.92
2017-05-17T11:19:45.421Z,1009.92
2017-05-17T11:20:46.865Z,1009.88
2017-05-17T11:21:48.305Z,1009.89
2017-05-17T11:22:49.748Z,1009.94
2017-05-17T11:23:51.197Z,1009.89
2017-05-17T11:24:52.638Z,1009.84
2017-05-17T11:25:54.089Z,1009.87
2017-05-17T11:26:55.544Z,1009.83
2017-05-17T11:27:56.988Z,1009.76
2017-05-17T11:28:58.428Z,1009.78
2017-05-17T11:29:59.871Z,1009.78
2017-05-17T11:31:01.328Z,1009.81
2017-05-17T11:32:02.771Z,1009.79
2017-05-17T11:33:04.209Z,1009.77
2017-05-17T11:34:05.653Z,1009.70
2017-05-17T11:35:07.101Z,1009.72
2017-05-17T11:36:08.538Z,1009.65
2017-05-17T11:37:09.983Z,1009.65
2017-05-17T11:38:11.424Z,1009.64
2017-05-17T11:39:12.871Z,1009.61
2017-05-17T11:40:14.313Z,1009.59
2017-05-17T11:41:15.753Z,1009.61
2017-05-17T11:42:17.196Z,1009.56
2017-05-17T11:43:19.411Z,1009.56
2017-05-17T11:44:20.859Z,1009.50
2017-05-17T11:45:22.299Z,1009.53
2017-05-17T11:46:23.738Z,1009.53
2017-05-17T11:47:25.179Z,1009.54
2017-05-17T11:48:26.635Z,1009.49
2017-05-17T11:49:28.079Z,1009.53
2017-05-17T11:50:29.526Z,1009.52
2017-05-17T11:51:30.975Z,1009.46
2017-05-17T11:52:32.471Z,1009.46
2017-05-17T11:53:33.854Z,1009.46
2017-05-17T11:54:35.301Z,1009.46
2017-05-17T11:55:36.744Z,1009.47
2017-05-17T11:56:38.182Z,1009.39
2017-05-17T11:57:39.623Z,1009.39
2017-05-17T11:58:41.068Z,1009.38
2017-05-17T11:59:42.505Z,1009.33
2017-05-17T12:00:43.951Z,1009.39
2017-05-17T12:01:45.385Z,1009.38
2017-05-17T12:02:46.839Z,1009.35
2017-05-17T12:03:48.278Z,1009.36
2017-05-17T12:04:49.729Z,1009.34
2017-05-17T12:05:51.194Z,1009.35
2017-05-17T12:06:52.625Z,1009.38
2017-05-17T12:07:54.073Z,1009.31
2017-05-17T12:08:55.508Z,1009.25
2017-05-17T12:09:56.962Z,1009.25
2017-05-17T12:10:58.402Z,1009.30
2017-05-17T12:11:59.852Z,1009.23
2017-05-17T12:13:01.293Z,1009.24
2017-05-17T12:14:02.742Z,1009.20
2017-05-17T12:15:04.233Z,1009.22
2017-05-17T12:16:05.626Z,1009.24
2017-05-17T12:17:07.071Z,1009.18
2017-05-17T12:18:10.101Z,1009.16
2017-05-17T12:19:11.557Z,1009.18
2017-05-17T12:20:13.000Z,1009.22
2017-05-17T12:21:15.203Z,1009.24
2017-05-17T12:22:16.651Z,1009.16
2017-05-17T12:23:18.087Z,1009.14